sensor_id;sensor_type;location;lat;lon;timestamp;P1;durP1;ratioP1;P2;durP2;ratioP2
50337;SDS011;46221;51.178;5.900;2023-06-19T00:00:11;6.82;;;4.32;;
50337;SDS011;46221;51.178;5.900;2023-06-19T00:02:40;7.13;;;4.45;;
50337;SDS011;46221;51.178;5.900;2023-06-19T00:05:06;5.47;;;4.32;;
50337;SDS011;46221;51.178;5.900;2023-06-19T00:07:34;7.13;;;5.05;;
50337;SDS011;46221;51.178;5.900;2023-06-19T00:10:00;6.20;;;4.20;;
50337;SDS011;46221;51.178;5.900;2023-06-19T00:12:27;6.47;;;4.18;;
50337;SDS011;46221;51.178;5.900;2023-06-19T00:14:53;6.65;;;4.00;;
50337;SDS011;46221;51.178;5.900;2023-06-19T00:17:19;5.80;;;4.35;;
50337;SDS011;46221;51.178;5.900;2023-06-19T00:19:46;5.63;;;4.28;;
50337;SDS011;46221;51.178;5.900;2023-06-19T00:22:12;5.53;;;4.15;;
50337;SDS011;46221;51.178;5.900;2023-06-19T00:24:39;6.72;;;4.43;;
50337;SDS011;46221;51.178;5.900;2023-06-19T00:27:06;6.50;;;4.47;;
50337;SDS011;46221;51.178;5.900;2023-06-19T00:29:32;6.80;;;4.20;;
50337;SDS011;46221;51.178;5.900;2023-06-19T00:31:59;6.65;;;4.57;;
50337;SDS011;46221;51.178;5.900;2023-06-19T00:34:26;7.22;;;4.57;;
50337;SDS011;46221;51.178;5.900;2023-06-19T00:36:52;4.95;;;4.03;;
50337;SDS011;46221;51.178;5.900;2023-06-19T00:39:25;6.22;;;4.53;;
50337;SDS011;46221;51.178;5.900;2023-06-19T00:41:52;6.90;;;4.43;;
50337;SDS011;46221;51.178;5.900;2023-06-19T00:44:18;6.32;;;4.65;;
50337;SDS011;46221;51.178;5.900;2023-06-19T00:46:45;5.30;;;3.80;;
50337;SDS011;46221;51.178;5.900;2023-06-19T00:49:11;9.30;;;4.30;;
50337;SDS011;46221;51.178;5.900;2023-06-19T00:51:38;5.72;;;3.88;;
50337;SDS011;46221;51.178;5.900;2023-06-19T00:54:04;5.72;;;4.05;;
50337;SDS011;46221;51.178;5.900;2023-06-19T00:56:31;6.30;;;4.13;;
50337;SDS011;46221;51.178;5.900;2023-06-19T00:58:58;5.22;;;3.90;;
50337;SDS011;46221;51.178;5.900;2023-06-19T01:01:24;4.63;;;3.85;;
50337;SDS011;46221;51.178;5.900;2023-06-19T01:03:51;5.43;;;3.88;;
50337;SDS011;46221;51.178;5.900;2023-06-19T01:06:23;6.20;;;4.25;;
50337;SDS011;46221;51.178;5.900;2023-06-19T01:08:55;6.43;;;4.00;;
50337;SDS011;46221;51.178;5.900;2023-06-19T01:11:23;6.05;;;3.80;;
50337;SDS011;46221;51.178;5.900;2023-06-19T01:13:58;4.85;;;3.92;;
50337;SDS011;46221;51.178;5.900;2023-06-19T01:16:26;6.57;;;4.20;;
50337;SDS011;46221;51.178;5.900;2023-06-19T01:18:53;5.80;;;4.25;;
50337;SDS011;46221;51.178;5.900;2023-06-19T01:21:20;6.35;;;3.75;;
50337;SDS011;46221;51.178;5.900;2023-06-19T01:23:46;4.82;;;3.90;;
50337;SDS011;46221;51.178;5.900;2023-06-19T01:26:13;5.72;;;4.30;;
50337;SDS011;46221;51.178;5.900;2023-06-19T01:28:40;5.78;;;4.28;;
50337;SDS011;46221;51.178;5.900;2023-06-19T01:34:04;5.75;;;3.72;;
50337;SDS011;46221;51.178;5.900;2023-06-19T01:36:32;4.90;;;3.78;;
50337;SDS011;46221;51.178;5.900;2023-06-19T01:38:59;5.90;;;3.90;;
50337;SDS011;46221;51.178;5.900;2023-06-19T01:41:26;5.63;;;4.20;;
50337;SDS011;46221;51.178;5.900;2023-06-19T01:43:52;6.63;;;4.40;;
50337;SDS011;46221;51.178;5.900;2023-06-19T01:46:19;6.30;;;4.05;;
50337;SDS011;46221;51.178;5.900;2023-06-19T01:48:45;6.28;;;4.30;;
50337;SDS011;46221;51.178;5.900;2023-06-19T01:51:12;6.03;;;4.03;;
50337;SDS011;46221;51.178;5.900;2023-06-19T01:53:38;5.45;;;4.40;;
50337;SDS011;46221;51.178;5.900;2023-06-19T01:56:04;5.03;;;4.05;;
50337;SDS011;46221;51.178;5.900;2023-06-19T01:58:31;5.88;;;4.10;;
50337;SDS011;46221;51.178;5.900;2023-06-19T02:00:57;5.50;;;3.90;;
50337;SDS011;46221;51.178;5.900;2023-06-19T02:03:23;5.50;;;3.63;;
50337;SDS011;46221;51.178;5.900;2023-06-19T02:05:50;5.05;;;3.80;;
50337;SDS011;46221;51.178;5.900;2023-06-19T02:08:16;5.60;;;4.10;;
50337;SDS011;46221;51.178;5.900;2023-06-19T02:10:43;5.88;;;3.75;;
50337;SDS011;46221;51.178;5.900;2023-06-19T02:13:09;5.80;;;3.60;;
50337;SDS011;46221;51.178;5.900;2023-06-19T02:15:36;4.78;;;3.63;;
50337;SDS011;46221;51.178;5.900;2023-06-19T02:18:02;5.60;;;3.72;;
50337;SDS011;46221;51.178;5.900;2023-06-19T02:20:29;5.05;;;3.55;;
50337;SDS011;46221;51.178;5.900;2023-06-19T02:22:55;5.82;;;3.90;;
50337;SDS011;46221;51.178;5.900;2023-06-19T02:25:22;4.70;;;3.22;;
50337;SDS011;46221;51.178;5.900;2023-06-19T02:27:48;5.70;;;3.70;;
50337;SDS011;46221;51.178;5.900;2023-06-19T02:30:14;11.32;;;4.07;;
50337;SDS011;46221;51.178;5.900;2023-06-19T02:32:41;6.75;;;3.92;;
50337;SDS011;46221;51.178;5.900;2023-06-19T02:35:09;4.88;;;3.83;;
50337;SDS011;46221;51.178;5.900;2023-06-19T02:37:35;5.10;;;3.88;;
50337;SDS011;46221;51.178;5.900;2023-06-19T02:40:05;6.50;;;4.43;;
50337;SDS011;46221;51.178;5.900;2023-06-19T02:42:32;5.78;;;3.58;;
50337;SDS011;46221;51.178;5.900;2023-06-19T02:44:59;5.68;;;3.47;;
50337;SDS011;46221;51.178;5.900;2023-06-19T02:47:30;5.63;;;3.25;;
50337;SDS011;46221;51.178;5.900;2023-06-19T02:49:57;5.05;;;3.80;;
50337;SDS011;46221;51.178;5.900;2023-06-19T02:52:25;5.22;;;3.55;;
50337;SDS011;46221;51.178;5.900;2023-06-19T02:54:51;6.95;;;3.00;;
50337;SDS011;46221;51.178;5.900;2023-06-19T02:57:18;5.78;;;3.72;;
50337;SDS011;46221;51.178;5.900;2023-06-19T02:59:44;4.90;;;3.75;;
50337;SDS011;46221;51.178;5.900;2023-06-19T03:02:11;4.53;;;3.20;;
50337;SDS011;46221;51.178;5.900;2023-06-19T03:04:38;4.40;;;3.22;;
50337;SDS011;46221;51.178;5.900;2023-06-19T03:07:04;5.65;;;3.35;;
50337;SDS011;46221;51.178;5.900;2023-06-19T03:09:31;4.55;;;3.22;;
50337;SDS011;46221;51.178;5.900;2023-06-19T03:11:57;4.22;;;3.10;;
50337;SDS011;46221;51.178;5.900;2023-06-19T03:14:23;4.07;;;3.30;;
50337;SDS011;46221;51.178;5.900;2023-06-19T03:16:50;6.18;;;3.40;;
50337;SDS011;46221;51.178;5.900;2023-06-19T03:19:16;4.45;;;3.22;;
50337;SDS011;46221;51.178;5.900;2023-06-19T03:21:43;4.38;;;3.20;;
50337;SDS011;46221;51.178;5.900;2023-06-19T03:24:09;5.22;;;3.15;;
50337;SDS011;46221;51.178;5.900;2023-06-19T03:26:35;4.57;;;3.00;;
50337;SDS011;46221;51.178;5.900;2023-06-19T03:29:02;3.83;;;3.08;;
50337;SDS011;46221;51.178;5.900;2023-06-19T03:31:28;4.32;;;3.30;;
50337;SDS011;46221;51.178;5.900;2023-06-19T03:33:54;4.28;;;3.13;;
50337;SDS011;46221;51.178;5.900;2023-06-19T03:36:21;4.85;;;2.97;;
50337;SDS011;46221;51.178;5.900;2023-06-19T03:38:49;5.28;;;3.05;;
50337;SDS011;46221;51.178;5.900;2023-06-19T03:41:15;5.05;;;2.97;;
50337;SDS011;46221;51.178;5.900;2023-06-19T03:43:41;6.07;;;3.00;;
50337;SDS011;46221;51.178;5.900;2023-06-19T03:46:08;4.32;;;2.88;;
50337;SDS011;46221;51.178;5.900;2023-06-19T03:48:34;3.78;;;2.97;;
50337;SDS011;46221;51.178;5.900;2023-06-19T03:51:01;5.35;;;2.97;;
50337;SDS011;46221;51.178;5.900;2023-06-19T03:53:27;3.88;;;3.00;;
50337;SDS011;46221;51.178;5.900;2023-06-19T03:55:54;4.03;;;2.85;;
50337;SDS011;46221;51.178;5.900;2023-06-19T03:58:22;3.92;;;2.70;;
50337;SDS011;46221;51.178;5.900;2023-06-19T04:00:48;3.65;;;2.47;;
50337;SDS011;46221;51.178;5.900;2023-06-19T04:03:14;3.75;;;2.60;;
50337;SDS011;46221;51.178;5.900;2023-06-19T04:05:41;3.60;;;2.63;;
50337;SDS011;46221;51.178;5.900;2023-06-19T04:08:08;4.03;;;2.75;;
50337;SDS011;46221;51.178;5.900;2023-06-19T04:10:34;3.65;;;2.50;;
50337;SDS011;46221;51.178;5.900;2023-06-19T04:13:01;3.75;;;2.50;;
50337;SDS011;46221;51.178;5.900;2023-06-19T04:15:27;6.85;;;2.85;;
50337;SDS011;46221;51.178;5.900;2023-06-19T04:17:54;4.15;;;2.72;;
50337;SDS011;46221;51.178;5.900;2023-06-19T04:20:20;3.65;;;2.53;;
50337;SDS011;46221;51.178;5.900;2023-06-19T04:22:47;4.28;;;2.67;;
50337;SDS011;46221;51.178;5.900;2023-06-19T04:25:13;3.72;;;2.30;;
50337;SDS011;46221;51.178;5.900;2023-06-19T04:27:40;4.13;;;2.80;;
50337;SDS011;46221;51.178;5.900;2023-06-19T04:30:06;5.47;;;2.50;;
50337;SDS011;46221;51.178;5.900;2023-06-19T04:32:33;5.03;;;2.28;;
50337;SDS011;46221;51.178;5.900;2023-06-19T04:35:01;3.53;;;2.33;;
50337;SDS011;46221;51.178;5.900;2023-06-19T04:37:27;3.20;;;2.28;;
50337;SDS011;46221;51.178;5.900;2023-06-19T04:39:54;4.45;;;2.47;;
50337;SDS011;46221;51.178;5.900;2023-06-19T04:42:20;3.50;;;2.47;;
50337;SDS011;46221;51.178;5.900;2023-06-19T04:44:47;3.22;;;2.33;;
50337;SDS011;46221;51.178;5.900;2023-06-19T04:47:14;3.17;;;2.20;;
50337;SDS011;46221;51.178;5.900;2023-06-19T04:49:40;5.38;;;2.88;;
50337;SDS011;46221;51.178;5.900;2023-06-19T04:52:07;3.88;;;2.40;;
50337;SDS011;46221;51.178;5.900;2023-06-19T04:54:33;4.07;;;2.40;;
50337;SDS011;46221;51.178;5.900;2023-06-19T04:56:59;3.67;;;2.13;;
50337;SDS011;46221;51.178;5.900;2023-06-19T04:59:26;3.90;;;2.60;;
50337;SDS011;46221;51.178;5.900;2023-06-19T05:01:53;5.60;;;2.50;;
50337;SDS011;46221;51.178;5.900;2023-06-19T05:04:20;4.63;;;2.30;;
50337;SDS011;46221;51.178;5.900;2023-06-19T05:06:47;6.13;;;2.95;;
50337;SDS011;46221;51.178;5.900;2023-06-19T05:09:14;4.90;;;2.42;;
50337;SDS011;46221;51.178;5.900;2023-06-19T05:11:40;5.72;;;2.67;;
50337;SDS011;46221;51.178;5.900;2023-06-19T05:14:07;7.47;;;2.53;;
50337;SDS011;46221;51.178;5.900;2023-06-19T05:16:34;8.25;;;3.05;;
50337;SDS011;46221;51.178;5.900;2023-06-19T05:19:02;3.70;;;2.72;;
50337;SDS011;46221;51.178;5.900;2023-06-19T05:21:29;4.47;;;2.65;;
50337;SDS011;46221;51.178;5.900;2023-06-19T05:23:55;7.50;;;2.78;;
50337;SDS011;46221;51.178;5.900;2023-06-19T05:26:22;4.00;;;2.60;;
50337;SDS011;46221;51.178;5.900;2023-06-19T05:28:49;4.03;;;2.80;;
50337;SDS011;46221;51.178;5.900;2023-06-19T05:31:15;5.03;;;2.80;;
50337;SDS011;46221;51.178;5.900;2023-06-19T05:33:41;5.50;;;2.55;;
50337;SDS011;46221;51.178;5.900;2023-06-19T05:36:08;5.22;;;2.58;;
50337;SDS011;46221;51.178;5.900;2023-06-19T05:38:34;6.32;;;2.72;;
50337;SDS011;46221;51.178;5.900;2023-06-19T05:41:01;3.10;;;2.22;;
50337;SDS011;46221;51.178;5.900;2023-06-19T05:43:27;5.10;;;2.63;;
50337;SDS011;46221;51.178;5.900;2023-06-19T05:45:54;5.47;;;2.58;;
50337;SDS011;46221;51.178;5.900;2023-06-19T05:48:22;4.30;;;3.03;;
50337;SDS011;46221;51.178;5.900;2023-06-19T05:50:48;4.03;;;2.65;;
50337;SDS011;46221;51.178;5.900;2023-06-19T05:53:15;5.97;;;2.80;;
50337;SDS011;46221;51.178;5.900;2023-06-19T05:55:41;4.53;;;3.00;;
50337;SDS011;46221;51.178;5.900;2023-06-19T05:58:08;3.92;;;2.47;;
50337;SDS011;46221;51.178;5.900;2023-06-19T06:00:34;4.85;;;2.78;;
50337;SDS011;46221;51.178;5.900;2023-06-19T06:03:01;6.97;;;3.22;;
50337;SDS011;46221;51.178;5.900;2023-06-19T06:05:28;4.95;;;2.97;;
50337;SDS011;46221;51.178;5.900;2023-06-19T06:07:55;4.93;;;2.75;;
50337;SDS011;46221;51.178;5.900;2023-06-19T06:10:22;4.68;;;2.53;;
50337;SDS011;46221;51.178;5.900;2023-06-19T06:12:49;6.53;;;2.50;;
50337;SDS011;46221;51.178;5.900;2023-06-19T06:15:16;4.00;;;2.53;;
50337;SDS011;46221;51.178;5.900;2023-06-19T06:17:42;4.60;;;2.60;;
50337;SDS011;46221;51.178;5.900;2023-06-19T06:20:09;4.97;;;2.90;;
50337;SDS011;46221;51.178;5.900;2023-06-19T06:22:42;5.07;;;2.92;;
50337;SDS011;46221;51.178;5.900;2023-06-19T06:25:09;4.93;;;2.78;;
50337;SDS011;46221;51.178;5.900;2023-06-19T06:27:39;4.88;;;2.50;;
50337;SDS011;46221;51.178;5.900;2023-06-19T06:30:05;4.95;;;2.95;;
50337;SDS011;46221;51.178;5.900;2023-06-19T06:32:32;3.90;;;2.67;;
50337;SDS011;46221;51.178;5.900;2023-06-19T06:34:59;3.88;;;2.22;;
50337;SDS011;46221;51.178;5.900;2023-06-19T06:37:25;5.05;;;2.50;;
50337;SDS011;46221;51.178;5.900;2023-06-19T06:39:52;5.25;;;2.60;;
50337;SDS011;46221;51.178;5.900;2023-06-19T06:42:18;6.18;;;2.47;;
50337;SDS011;46221;51.178;5.900;2023-06-19T06:44:45;4.93;;;2.72;;
50337;SDS011;46221;51.178;5.900;2023-06-19T06:47:11;4.10;;;2.50;;
50337;SDS011;46221;51.178;5.900;2023-06-19T06:49:38;4.75;;;2.42;;
50337;SDS011;46221;51.178;5.900;2023-06-19T06:52:04;5.50;;;3.08;;
50337;SDS011;46221;51.178;5.900;2023-06-19T06:54:31;5.50;;;2.67;;
50337;SDS011;46221;51.178;5.900;2023-06-19T06:56:57;4.20;;;2.45;;
50337;SDS011;46221;51.178;5.900;2023-06-19T06:59:26;5.10;;;2.30;;
50337;SDS011;46221;51.178;5.900;2023-06-19T07:01:54;6.80;;;2.13;;
50337;SDS011;46221;51.178;5.900;2023-06-19T07:04:20;5.07;;;2.35;;
50337;SDS011;46221;51.178;5.900;2023-06-19T07:06:47;5.53;;;2.60;;
50337;SDS011;46221;51.178;5.900;2023-06-19T07:09:13;7.32;;;2.53;;
50337;SDS011;46221;51.178;5.900;2023-06-19T07:11:40;4.20;;;2.00;;
50337;SDS011;46221;51.178;5.900;2023-06-19T07:14:06;4.72;;;2.10;;
50337;SDS011;46221;51.178;5.900;2023-06-19T07:16:33;4.32;;;2.30;;
50337;SDS011;46221;51.178;5.900;2023-06-19T07:18:59;4.82;;;2.40;;
50337;SDS011;46221;51.178;5.900;2023-06-19T07:21:26;3.45;;;2.30;;
50337;SDS011;46221;51.178;5.900;2023-06-19T07:23:53;4.40;;;2.38;;
50337;SDS011;46221;51.178;5.900;2023-06-19T07:26:20;3.50;;;2.15;;
50337;SDS011;46221;51.178;5.900;2023-06-19T07:28:46;3.47;;;2.22;;
50337;SDS011;46221;51.178;5.900;2023-06-19T07:31:12;4.38;;;2.05;;
50337;SDS011;46221;51.178;5.900;2023-06-19T07:33:39;4.15;;;2.00;;
50337;SDS011;46221;51.178;5.900;2023-06-19T07:36:05;5.13;;;2.33;;
50337;SDS011;46221;51.178;5.900;2023-06-19T07:38:33;4.35;;;2.35;;
50337;SDS011;46221;51.178;5.900;2023-06-19T07:41:00;4.90;;;2.10;;
50337;SDS011;46221;51.178;5.900;2023-06-19T07:43:26;2.95;;;2.03;;
50337;SDS011;46221;51.178;5.900;2023-06-19T07:45:52;4.03;;;2.42;;
50337;SDS011;46221;51.178;5.900;2023-06-19T07:48:19;3.63;;;2.00;;
50337;SDS011;46221;51.178;5.900;2023-06-19T07:50:45;3.38;;;1.90;;
50337;SDS011;46221;51.178;5.900;2023-06-19T07:53:12;3.55;;;2.20;;
50337;SDS011;46221;51.178;5.900;2023-06-19T07:55:38;3.10;;;1.90;;
50337;SDS011;46221;51.178;5.900;2023-06-19T07:58:04;3.47;;;1.90;;
50337;SDS011;46221;51.178;5.900;2023-06-19T08:00:31;3.97;;;1.98;;
50337;SDS011;46221;51.178;5.900;2023-06-19T08:02:57;3.80;;;2.38;;
50337;SDS011;46221;51.178;5.900;2023-06-19T08:05:23;4.65;;;2.15;;
50337;SDS011;46221;51.178;5.900;2023-06-19T08:07:50;3.13;;;2.00;;
50337;SDS011;46221;51.178;5.900;2023-06-19T08:10:16;5.93;;;2.28;;
50337;SDS011;46221;51.178;5.900;2023-06-19T08:12:43;3.33;;;1.98;;
50337;SDS011;46221;51.178;5.900;2023-06-19T08:15:10;3.05;;;2.08;;
50337;SDS011;46221;51.178;5.900;2023-06-19T08:17:37;3.13;;;2.10;;
50337;SDS011;46221;51.178;5.900;2023-06-19T08:20:03;5.13;;;2.30;;
50337;SDS011;46221;51.178;5.900;2023-06-19T08:22:31;5.05;;;2.17;;
50337;SDS011;46221;51.178;5.900;2023-06-19T08:24:57;3.28;;;2.03;;
50337;SDS011;46221;51.178;5.900;2023-06-19T08:27:24;3.65;;;1.90;;
50337;SDS011;46221;51.178;5.900;2023-06-19T08:29:50;4.13;;;1.90;;
50337;SDS011;46221;51.178;5.900;2023-06-19T08:32:17;4.40;;;2.30;;
50337;SDS011;46221;51.178;5.900;2023-06-19T08:34:43;4.22;;;2.33;;
50337;SDS011;46221;51.178;5.900;2023-06-19T08:37:10;4.28;;;2.22;;
50337;SDS011;46221;51.178;5.900;2023-06-19T08:39:36;3.17;;;2.20;;
50337;SDS011;46221;51.178;5.900;2023-06-19T08:42:08;4.32;;;2.15;;
50337;SDS011;46221;51.178;5.900;2023-06-19T08:44:35;4.53;;;2.42;;
50337;SDS011;46221;51.178;5.900;2023-06-19T08:47:04;3.70;;;2.22;;
50337;SDS011;46221;51.178;5.900;2023-06-19T08:49:32;4.82;;;2.20;;
50337;SDS011;46221;51.178;5.900;2023-06-19T08:51:59;4.28;;;2.20;;
50337;SDS011;46221;51.178;5.900;2023-06-19T08:54:26;4.43;;;2.33;;
50337;SDS011;46221;51.178;5.900;2023-06-19T08:56:53;3.72;;;2.30;;
50337;SDS011;46221;51.178;5.900;2023-06-19T08:59:22;4.35;;;2.50;;
50337;SDS011;46221;51.178;5.900;2023-06-19T09:01:50;3.53;;;2.10;;
50337;SDS011;46221;51.178;5.900;2023-06-19T09:04:19;3.95;;;2.50;;
50337;SDS011;46221;51.178;5.900;2023-06-19T09:06:49;3.75;;;2.30;;
50337;SDS011;46221;51.178;5.900;2023-06-19T09:09:20;3.83;;;2.25;;
50337;SDS011;46221;51.178;5.900;2023-06-19T09:12:00;3.88;;;2.25;;
50337;SDS011;46221;51.178;5.900;2023-06-19T09:14:42;3.83;;;1.92;;
50337;SDS011;46221;51.178;5.900;2023-06-19T09:17:20;3.58;;;2.28;;
50337;SDS011;46221;51.178;5.900;2023-06-19T09:19:50;3.22;;;2.25;;
50337;SDS011;46221;51.178;5.900;2023-06-19T09:22:18;3.15;;;1.88;;
50337;SDS011;46221;51.178;5.900;2023-06-19T09:24:45;3.08;;;2.17;;
50337;SDS011;46221;51.178;5.900;2023-06-19T09:27:15;5.82;;;2.13;;
50337;SDS011;46221;51.178;5.900;2023-06-19T09:29:44;4.43;;;2.47;;
50337;SDS011;46221;51.178;5.900;2023-06-19T09:32:18;3.05;;;2.03;;
50337;SDS011;46221;51.178;5.900;2023-06-19T09:34:45;2.88;;;1.90;;
50337;SDS011;46221;51.178;5.900;2023-06-19T09:37:12;4.47;;;2.22;;
50337;SDS011;46221;51.178;5.900;2023-06-19T09:39:39;3.10;;;2.15;;
50337;SDS011;46221;51.178;5.900;2023-06-19T09:42:07;3.53;;;2.10;;
50337;SDS011;46221;51.178;5.900;2023-06-19T09:44:37;3.20;;;2.08;;
50337;SDS011;46221;51.178;5.900;2023-06-19T09:47:16;3.22;;;2.35;;
50337;SDS011;46221;51.178;5.900;2023-06-19T09:49:48;3.38;;;2.22;;
50337;SDS011;46221;51.178;5.900;2023-06-19T09:52:15;3.72;;;2.05;;
50337;SDS011;46221;51.178;5.900;2023-06-19T09:54:41;4.85;;;2.40;;
50337;SDS011;46221;51.178;5.900;2023-06-19T09:57:10;3.58;;;2.10;;
50337;SDS011;46221;51.178;5.900;2023-06-19T09:59:37;3.15;;;2.50;;
50337;SDS011;46221;51.178;5.900;2023-06-19T10:02:04;2.70;;;2.03;;
50337;SDS011;46221;51.178;5.900;2023-06-19T10:04:42;3.53;;;2.45;;
50337;SDS011;46221;51.178;5.900;2023-06-19T10:07:19;3.00;;;2.20;;
50337;SDS011;46221;51.178;5.900;2023-06-19T10:09:55;3.35;;;2.20;;
50337;SDS011;46221;51.178;5.900;2023-06-19T10:12:22;4.25;;;2.28;;
50337;SDS011;46221;51.178;5.900;2023-06-19T10:14:48;3.05;;;2.28;;
50337;SDS011;46221;51.178;5.900;2023-06-19T10:17:18;3.53;;;2.17;;
50337;SDS011;46221;51.178;5.900;2023-06-19T10:19:51;3.20;;;2.22;;
50337;SDS011;46221;51.178;5.900;2023-06-19T10:22:21;3.97;;;2.50;;
50337;SDS011;46221;51.178;5.900;2023-06-19T10:24:51;3.72;;;2.00;;
50337;SDS011;46221;51.178;5.900;2023-06-19T10:27:21;3.35;;;2.28;;
50337;SDS011;46221;51.178;5.900;2023-06-19T10:29:51;2.90;;;1.85;;
50337;SDS011;46221;51.178;5.900;2023-06-19T10:32:25;3.40;;;2.10;;
50337;SDS011;46221;51.178;5.900;2023-06-19T10:34:52;3.00;;;2.10;;
50337;SDS011;46221;51.178;5.900;2023-06-19T10:37:18;3.72;;;2.17;;
50337;SDS011;46221;51.178;5.900;2023-06-19T10:39:57;4.03;;;2.40;;
50337;SDS011;46221;51.178;5.900;2023-06-19T10:42:24;3.60;;;2.60;;
50337;SDS011;46221;51.178;5.900;2023-06-19T10:44:50;3.55;;;2.38;;
50337;SDS011;46221;51.178;5.900;2023-06-19T10:47:16;2.65;;;1.80;;
50337;SDS011;46221;51.178;5.900;2023-06-19T10:49:43;3.50;;;2.40;;
50337;SDS011;46221;51.178;5.900;2023-06-19T10:52:09;3.30;;;2.25;;
50337;SDS011;46221;51.178;5.900;2023-06-19T10:54:35;3.20;;;2.20;;
50337;SDS011;46221;51.178;5.900;2023-06-19T10:57:05;3.58;;;2.22;;
50337;SDS011;46221;51.178;5.900;2023-06-19T10:59:33;3.13;;;2.50;;
50337;SDS011;46221;51.178;5.900;2023-06-19T11:01:59;3.33;;;2.13;;
50337;SDS011;46221;51.178;5.900;2023-06-19T11:04:26;3.78;;;2.13;;
50337;SDS011;46221;51.178;5.900;2023-06-19T11:06:52;3.88;;;2.30;;
50337;SDS011;46221;51.178;5.900;2023-06-19T11:09:19;2.78;;;2.00;;
50337;SDS011;46221;51.178;5.900;2023-06-19T11:11:46;3.25;;;2.40;;
50337;SDS011;46221;51.178;5.900;2023-06-19T11:14:14;3.25;;;2.08;;
50337;SDS011;46221;51.178;5.900;2023-06-19T11:16:41;3.85;;;2.20;;
50337;SDS011;46221;51.178;5.900;2023-06-19T11:19:09;3.20;;;2.25;;
50337;SDS011;46221;51.178;5.900;2023-06-19T11:21:36;3.88;;;2.50;;
50337;SDS011;46221;51.178;5.900;2023-06-19T11:24:11;2.88;;;2.03;;
50337;SDS011;46221;51.178;5.900;2023-06-19T11:26:42;3.72;;;2.45;;
50337;SDS011;46221;51.178;5.900;2023-06-19T11:29:20;3.30;;;2.25;;
50337;SDS011;46221;51.178;5.900;2023-06-19T11:31:47;2.67;;;2.00;;
50337;SDS011;46221;51.178;5.900;2023-06-19T11:34:13;3.83;;;2.15;;
50337;SDS011;46221;51.178;5.900;2023-06-19T11:36:40;3.03;;;2.25;;
50337;SDS011;46221;51.178;5.900;2023-06-19T11:39:10;3.28;;;2.30;;
50337;SDS011;46221;51.178;5.900;2023-06-19T11:41:37;3.00;;;2.28;;
50337;SDS011;46221;51.178;5.900;2023-06-19T11:44:04;4.32;;;2.35;;
50337;SDS011;46221;51.178;5.900;2023-06-19T11:46:31;2.90;;;2.30;;
50337;SDS011;46221;51.178;5.900;2023-06-19T11:49:11;3.00;;;2.05;;
50337;SDS011;46221;51.178;5.900;2023-06-19T11:51:39;3.55;;;2.22;;
50337;SDS011;46221;51.178;5.900;2023-06-19T11:54:06;3.13;;;2.40;;
50337;SDS011;46221;51.178;5.900;2023-06-19T11:56:32;3.20;;;2.28;;
50337;SDS011;46221;51.178;5.900;2023-06-19T11:59:00;2.72;;;2.13;;
50337;SDS011;46221;51.178;5.900;2023-06-19T12:01:26;3.17;;;2.03;;
50337;SDS011;46221;51.178;5.900;2023-06-19T12:03:53;3.60;;;2.17;;
50337;SDS011;46221;51.178;5.900;2023-06-19T12:06:20;2.80;;;2.05;;
50337;SDS011;46221;51.178;5.900;2023-06-19T12:08:46;2.67;;;2.00;;
50337;SDS011;46221;51.178;5.900;2023-06-19T12:11:13;2.83;;;2.15;;
50337;SDS011;46221;51.178;5.900;2023-06-19T12:13:40;3.47;;;2.17;;
50337;SDS011;46221;51.178;5.900;2023-06-19T12:16:07;4.15;;;2.60;;
50337;SDS011;46221;51.178;5.900;2023-06-19T12:18:33;3.17;;;2.10;;
50337;SDS011;46221;51.178;5.900;2023-06-19T12:21:00;5.13;;;2.65;;
50337;SDS011;46221;51.178;5.900;2023-06-19T12:23:27;3.42;;;1.95;;
50337;SDS011;46221;51.178;5.900;2023-06-19T12:25:53;3.47;;;2.30;;
50337;SDS011;46221;51.178;5.900;2023-06-19T12:28:19;3.00;;;2.25;;
50337;SDS011;46221;51.178;5.900;2023-06-19T12:30:47;3.45;;;2.10;;
50337;SDS011;46221;51.178;5.900;2023-06-19T12:33:17;2.80;;;2.17;;
50337;SDS011;46221;51.178;5.900;2023-06-19T12:35:44;2.72;;;2.08;;
50337;SDS011;46221;51.178;5.900;2023-06-19T12:38:11;4.00;;;2.40;;
50337;SDS011;46221;51.178;5.900;2023-06-19T12:40:37;3.25;;;2.22;;
50337;SDS011;46221;51.178;5.900;2023-06-19T12:43:04;3.20;;;2.20;;
50337;SDS011;46221;51.178;5.900;2023-06-19T12:45:30;3.53;;;2.38;;
50337;SDS011;46221;51.178;5.900;2023-06-19T12:47:57;3.22;;;2.55;;
50337;SDS011;46221;51.178;5.900;2023-06-19T12:50:23;2.97;;;2.45;;
50337;SDS011;46221;51.178;5.900;2023-06-19T12:52:50;3.17;;;2.50;;
50337;SDS011;46221;51.178;5.900;2023-06-19T12:55:17;3.55;;;2.10;;
50337;SDS011;46221;51.178;5.900;2023-06-19T12:57:43;3.20;;;2.53;;
50337;SDS011;46221;51.178;5.900;2023-06-19T13:00:11;2.95;;;2.20;;
50337;SDS011;46221;51.178;5.900;2023-06-19T13:02:38;3.80;;;2.33;;
50337;SDS011;46221;51.178;5.900;2023-06-19T13:05:06;3.70;;;2.70;;
50337;SDS011;46221;51.178;5.900;2023-06-19T13:07:32;3.25;;;2.40;;
50337;SDS011;46221;51.178;5.900;2023-06-19T13:09:59;3.00;;;2.30;;
50337;SDS011;46221;51.178;5.900;2023-06-19T13:12:25;4.07;;;2.83;;
50337;SDS011;46221;51.178;5.900;2023-06-19T13:14:51;3.00;;;2.50;;
50337;SDS011;46221;51.178;5.900;2023-06-19T13:17:18;4.60;;;2.50;;
50337;SDS011;46221;51.178;5.900;2023-06-19T13:19:45;2.92;;;2.25;;
50337;SDS011;46221;51.178;5.900;2023-06-19T13:22:11;3.00;;;2.28;;
50337;SDS011;46221;51.178;5.900;2023-06-19T13:24:37;2.90;;;2.30;;
50337;SDS011;46221;51.178;5.900;2023-06-19T13:27:04;3.47;;;2.47;;
50337;SDS011;46221;51.178;5.900;2023-06-19T13:29:30;3.35;;;2.72;;
50337;SDS011;46221;51.178;5.900;2023-06-19T13:31:57;3.53;;;2.50;;
50337;SDS011;46221;51.178;5.900;2023-06-19T13:34:23;3.33;;;2.58;;
50337;SDS011;46221;51.178;5.900;2023-06-19T13:36:49;3.53;;;2.38;;
50337;SDS011;46221;51.178;5.900;2023-06-19T13:39:16;3.58;;;2.83;;
50337;SDS011;46221;51.178;5.900;2023-06-19T13:41:45;3.75;;;2.40;;
50337;SDS011;46221;51.178;5.900;2023-06-19T13:44:12;3.20;;;2.35;;
50337;SDS011;46221;51.178;5.900;2023-06-19T13:46:38;3.22;;;2.67;;
50337;SDS011;46221;51.178;5.900;2023-06-19T13:49:05;3.58;;;2.70;;
50337;SDS011;46221;51.178;5.900;2023-06-19T13:51:31;3.22;;;2.38;;
50337;SDS011;46221;51.178;5.900;2023-06-19T13:53:58;2.83;;;2.47;;
50337;SDS011;46221;51.178;5.900;2023-06-19T13:56:25;3.20;;;2.38;;
50337;SDS011;46221;51.178;5.900;2023-06-19T13:58:51;3.38;;;2.47;;
50337;SDS011;46221;51.178;5.900;2023-06-19T14:01:17;3.75;;;2.75;;
50337;SDS011;46221;51.178;5.900;2023-06-19T14:03:44;3.05;;;2.22;;
50337;SDS011;46221;51.178;5.900;2023-06-19T14:06:10;3.22;;;2.50;;
50337;SDS011;46221;51.178;5.900;2023-06-19T14:08:38;3.22;;;2.53;;
50337;SDS011;46221;51.178;5.900;2023-06-19T14:11:05;3.30;;;2.58;;
50337;SDS011;46221;51.178;5.900;2023-06-19T14:13:32;2.88;;;2.33;;
50337;SDS011;46221;51.178;5.900;2023-06-19T14:15:59;2.92;;;2.20;;
50337;SDS011;46221;51.178;5.900;2023-06-19T14:18:25;3.92;;;2.80;;
50337;SDS011;46221;51.178;5.900;2023-06-19T14:20:51;3.40;;;2.40;;
50337;SDS011;46221;51.178;5.900;2023-06-19T14:23:18;3.95;;;2.40;;
50337;SDS011;46221;51.178;5.900;2023-06-19T14:25:44;3.25;;;2.65;;
50337;SDS011;46221;51.178;5.900;2023-06-19T14:28:10;3.25;;;2.33;;
50337;SDS011;46221;51.178;5.900;2023-06-19T14:30:37;2.67;;;2.15;;
50337;SDS011;46221;51.178;5.900;2023-06-19T14:33:03;4.35;;;2.60;;
50337;SDS011;46221;51.178;5.900;2023-06-19T14:35:30;3.63;;;2.58;;
50337;SDS011;46221;51.178;5.900;2023-06-19T14:37:56;3.33;;;2.55;;
50337;SDS011;46221;51.178;5.900;2023-06-19T14:40:22;3.63;;;2.47;;
50337;SDS011;46221;51.178;5.900;2023-06-19T14:42:49;3.47;;;2.50;;
50337;SDS011;46221;51.178;5.900;2023-06-19T14:45:16;3.10;;;2.20;;
50337;SDS011;46221;51.178;5.900;2023-06-19T14:47:42;3.47;;;2.55;;
50337;SDS011;46221;51.178;5.900;2023-06-19T14:50:09;3.33;;;2.55;;